Time;durP1;ratioP1;P1;durP2;ratioP2;P2;SDS_P1;SDS_P2;PMS_P1;PMS_P2;Temp;Humidity;BMP_temperature;BMP_pressure;BME280_temperature;BME280_humidity;BME280_pressure;Samples;Min_cycle;Max_cycle;Signal;HPM_P1;HPM_P2
2023/02/18 00:02:17;;;;;;;16.10;11.68;;;12.30;99.90;;;;;;5075011;28;20197;-81
2023/02/18 00:04:43;;;;;;;14.48;10.43;;;12.30;99.90;;;;;;5056837;28;20214;-81
2023/02/18 00:07:09;;;;;;;14.50;10.18;;;12.30;99.90;;;;;;5074569;28;20162;-82
2023/02/18 00:09:34;;;;;;;16.42;11.23;;;12.20;99.90;;;;;;5056465;28;20265;-80
2023/02/18 00:12:00;;;;;;;15.18;11.27;;;12.10;99.90;;;;;;5056381;28;20190;-81
2023/02/18 00:14:25;;;;;;;20.00;10.73;;;12.10;99.90;;;;;;5074777;28;20542;-80
2023/02/18 00:16:51;;;;;;;13.70;10.30;;;12.10;99.90;;;;;;5074416;28;20228;-81
2023/02/18 00:19:19;;;;;;;18.35;10.05;;;12.20;99.90;;;;;;5074255;28;20644;-81
2023/02/18 00:21:45;;;;;;;11.57;9.20;;;12.10;99.90;;;;;;5056921;28;20167;-80
2023/02/18 00:24:14;;;;;;;11.15;8.35;;;12.20;99.90;;;;;;5060894;28;20194;-80
2023/02/18 00:26:40;;;;;;;13.40;9.15;;;12.00;99.90;;;;;;5098633;28;20193;-81
2023/02/18 00:29:06;;;;;;;10.68;8.95;;;12.10;99.90;;;;;;5076328;28;20171;-81
2023/02/18 00:31:34;;;;;;;10.98;8.23;;;12.10;99.90;;;;;;5074203;28;20167;-82
2023/02/18 00:34:00;;;;;;;12.65;8.82;;;12.20;99.90;;;;;;5056540;28;20197;-81
2023/02/18 00:36:27;;;;;;;11.98;7.70;;;12.30;99.90;;;;;;5056003;28;20292;-81
2023/02/18 00:38:56;;;;;;;11.13;7.35;;;12.20;99.90;;;;;;5074683;28;20167;-81
2023/02/18 00:41:25;;;;;;;9.82;7.70;;;12.20;99.90;;;;;;5057244;28;20241;-81
2023/02/18 00:43:51;;;;;;;10.63;7.85;;;12.10;99.90;;;;;;5081475;28;20692;-81
2023/02/18 00:46:17;;;;;;;11.73;9.43;;;12.10;99.90;;;;;;5081585;28;20170;-80
2023/02/18 00:48:43;;;;;;;12.85;7.82;;;12.10;99.90;;;;;;5074547;28;20162;-80
2023/02/18 00:51:10;;;;;;;9.63;7.40;;;12.00;99.90;;;;;;5057540;28;20253;-80
2023/02/18 00:53:37;;;;;;;8.93;7.28;;;12.00;99.90;;;;;;5053609;28;20561;-85
2023/02/18 00:56:05;;;;;;;9.07;8.00;;;12.00;99.90;;;;;;5058685;28;20206;-80
2023/02/18 00:58:31;;;;;;;8.88;7.30;;;12.00;99.90;;;;;;5074976;28;20174;-80
2023/02/18 01:00:57;;;;;;;8.48;7.28;;;12.00;99.90;;;;;;5077319;28;20212;-84
2023/02/18 01:03:24;;;;;;;7.82;6.85;;;12.00;99.90;;;;;;5056827;28;20214;-80
2023/02/18 01:05:51;;;;;;;8.77;6.57;;;11.90;99.90;;;;;;5087069;28;20167;-82
2023/02/18 01:08:18;;;;;;;9.23;6.35;;;11.90;99.90;;;;;;5074977;28;20235;-81
2023/02/18 01:10:47;;;;;;;10.98;7.10;;;12.00;99.90;;;;;;5055324;28;20205;-80
2023/02/18 01:13:14;;;;;;;8.32;6.68;;;12.10;99.90;;;;;;5073137;28;20187;-82
2023/02/18 01:15:40;;;;;;;8.43;6.50;;;12.00;99.90;;;;;;5073449;28;20511;-81
2023/02/18 01:18:07;;;;;;;8.65;6.13;;;12.00;99.90;;;;;;5055618;28;20638;-80
2023/02/18 01:20:34;;;;;;;8.40;6.10;;;12.00;99.90;;;;;;5055015;28;20170;-81
2023/02/18 01:23:00;;;;;;;6.32;5.63;;;11.90;99.90;;;;;;5072822;28;20202;-81
2023/02/18 01:25:25;;;;;;;6.43;4.90;;;11.90;99.90;;;;;;5054894;28;20185;-81
2023/02/18 01:27:51;;;;;;;7.05;4.55;;;11.80;99.90;;;;;;5054959;28;20170;-80
2023/02/18 01:30:17;;;;;;;5.53;4.38;;;11.80;99.90;;;;;;5073039;28;20173;-82
2023/02/18 01:32:44;;;;;;;7.13;4.75;;;11.80;99.90;;;;;;5073518;28;20186;-80
2023/02/18 01:35:13;;;;;;;4.60;4.18;;;11.90;99.90;;;;;;5073530;28;20197;-81
2023/02/18 01:37:38;;;;;;;4.85;4.03;;;11.80;99.90;;;;;;5072953;28;20175;-80
2023/02/18 01:40:06;;;;;;;4.85;3.80;;;11.70;99.90;;;;;;5054825;28;20224;-81
2023/02/18 01:42:32;;;;;;;4.18;3.08;;;11.70;99.90;;;;;;5072691;28;20187;-80
2023/02/18 01:45:34;;;;;;;3.13;2.83;;;11.80;99.90;;;;;;5073034;28;20171;-81
2023/02/18 01:48:04;;;;;;;5.05;2.67;;;11.80;99.90;;;;;;5054685;28;20243;-80
2023/02/18 01:50:32;;;;;;;3.63;2.80;;;11.70;99.90;;;;;;5054957;28;20574;-81
2023/02/18 01:52:58;;;;;;;2.60;2.40;;;11.70;99.90;;;;;;5072593;28;20872;-80
2023/02/18 01:55:24;;;;;;;5.15;2.60;;;11.80;99.90;;;;;;5072262;28;20539;-80
2023/02/18 01:57:49;;;;;;;2.35;2.15;;;11.80;99.90;;;;;;5072656;28;20224;-80
2023/02/18 02:00:20;;;;;;;2.60;1.90;;;11.90;99.90;;;;;;5072558;28;20208;-81
2023/02/18 02:02:47;;;;;;;1.60;1.50;;;12.00;99.90;;;;;;5072460;28;21242;-81
2023/02/18 02:05:13;;;;;;;3.45;1.52;;;11.80;99.90;;;;;;5054567;28;20243;-81
2023/02/18 02:07:41;;;;;;;2.22;1.90;;;11.80;99.90;;;;;;5072381;28;20180;-80
2023/02/18 02:10:08;;;;;;;2.13;1.92;;;11.80;99.90;;;;;;5054692;28;20261;-80
2023/02/18 02:12:55;;;;;;;2.58;2.03;;;11.70;99.90;;;;;;5072293;28;20209;-80
2023/02/18 02:15:52;;;;;;;2.75;2.40;;;11.80;99.90;;;;;;5054371;28;20710;-80
2023/02/18 02:18:43;;;;;;;2.67;2.47;;;11.80;99.90;;;;;;5072154;28;20193;-81
2023/02/18 02:21:26;;;;;;;2.65;2.00;;;11.80;99.90;;;;;;5072449;28;20178;-80
2023/02/18 02:23:55;;;;;;;2.50;2.30;;;11.70;99.90;;;;;;5071843;28;20239;-80
2023/02/18 02:26:51;;;;;;;5.57;2.40;;;11.70;99.90;;;;;;5054434;28;20626;-80
2023/02/18 02:29:35;;;;;;;3.15;2.85;;;11.70;99.90;;;;;;5054507;28;20206;-82
2023/02/18 02:32:27;;;;;;;2.53;2.33;;;11.70;99.90;;;;;;5072442;28;20269;-80
2023/02/18 02:35:31;;;;;;;3.08;2.25;;;11.60;99.90;;;;;;5080272;28;20166;-80
2023/02/18 02:38:07;;;;;;;1.77;1.67;;;11.70;99.90;;;;;;5095123;28;20160;-79
2023/02/18 02:40:53;;;;;;;2.50;2.30;;;11.70;99.90;;;;;;5081344;28;20162;-79
2023/02/18 02:43:30;;;;;;;2.25;1.92;;;11.60;99.90;;;;;;5071800;28;20198;-80
2023/02/18 02:46:06;;;;;;;3.22;2.13;;;11.70;99.90;;;;;;5072047;28;20714;-80
2023/02/18 02:48:39;;;;;;;2.15;1.90;;;11.70;99.90;;;;;;5053977;28;20167;-80
2023/02/18 02:51:28;;;;;;;1.73;1.60;;;11.80;99.90;;;;;;5054102;28;20162;-80
2023/02/18 02:53:54;;;;;;;1.17;1.08;;;11.70;99.90;;;;;;5071787;28;20247;-80
2023/02/18 02:56:23;;;;;;;2.03;1.58;;;11.60;99.90;;;;;;5071985;28;20159;-81
2023/02/18 02:59:06;;;;;;;1.55;1.40;;;11.60;99.90;;;;;;5072101;28;20193;-83
2023/02/18 03:01:48;;;;;;;1.83;1.67;;;11.60;99.90;;;;;;5053885;28;20206;-82
2023/02/18 03:04:20;;;;;;;1.17;1.08;;;11.70;99.90;;;;;;5031723;28;20563;-82
2023/02/18 03:07:16;;;;;;;1.30;1.20;;;11.70;99.90;;;;;;5031645;28;20172;-83
2023/02/18 03:10:10;;;;;;;1.55;1.40;;;11.60;99.90;;;;;;5014047;28;20167;-80
2023/02/18 03:13:15;;;;;;;1.58;1.10;;;11.60;99.90;;;;;;5031866;28;20277;-83
2023/02/18 03:16:13;;;;;;;1.25;1.15;;;11.70;99.90;;;;;;5032200;28;20170;-81
2023/02/18 03:18:50;;;;;;;1.77;1.30;;;11.60;99.90;;;;;;5000669;28;20207;-81
2023/02/18 03:21:32;;;;;;;1.45;1.00;;;11.60;99.90;;;;;;5032202;28;20497;-81
2023/02/18 03:24:01;;;;;;;0.90;0.90;;;11.50;99.90;;;;;;5015614;28;20231;-81
2023/02/18 03:26:30;;;;;;;0.80;0.80;;;11.50;99.90;;;;;;5035514;28;20175;-81
2023/02/18 03:29:01;;;;;;;1.30;1.20;;;11.40;99.90;;;;;;5036050;28;20218;-81
2023/02/18 03:31:29;;;;;;;1.27;1.13;;;11.50;99.90;;;;;;5035715;28;20160;-81
2023/02/18 03:34:01;;;;;;;1.90;1.30;;;11.50;99.90;;;;;;5035337;28;20204;-82
2023/02/18 03:36:28;;;;;;;1.23;1.13;;;11.50;99.90;;;;;;5035371;28;20621;-80
2023/02/18 03:39:10;;;;;;;1.60;1.38;;;11.40;99.90;;;;;;5035091;28;20167;-80
2023/02/18 03:41:36;;;;;;;1.73;1.27;;;11.30;99.90;;;;;;5017095;28;20160;-82
2023/02/18 03:44:05;;;;;;;1.08;1.08;;;11.30;99.90;;;;;;5016997;28;20203;-81
2023/02/18 03:46:33;;;;;;;3.47;1.27;;;11.20;99.90;;;;;;5034474;28;20176;-80
2023/02/18 03:48:58;;;;;;;4.38;1.25;;;11.30;99.90;;;;;;5017284;28;20179;-79
2023/02/18 03:51:24;;;;;;;1.55;1.40;;;11.30;99.90;;;;;;5017270;28;20176;-79
2023/02/18 03:53:50;;;;;;;3.40;1.30;;;11.30;99.90;;;;;;5034776;28;20644;-79
2023/02/18 03:56:16;;;;;;;1.40;1.30;;;11.30;99.90;;;;;;5017469;28;20176;-80
2023/02/18 03:58:42;;;;;;;1.73;1.40;;;11.40;99.90;;;;;;5035066;28;20156;-80
2023/02/18 04:01:07;;;;;;;1.30;1.20;;;11.30;99.90;;;;;;5017277;28;20728;-79
2023/02/18 04:03:33;;;;;;;1.38;1.27;;;11.30;99.90;;;;;;5034776;28;20560;-80
2023/02/18 04:05:59;;;;;;;1.33;1.15;;;11.30;99.90;;;;;;5034827;28;20258;-79
2023/02/18 04:08:24;;;;;;;1.30;1.20;;;11.40;99.90;;;;;;5016903;28;20271;-80
2023/02/18 04:10:50;;;;;;;1.33;1.23;;;11.40;99.90;;;;;;5016872;28;20172;-79
2023/02/18 04:13:16;;;;;;;0.98;0.90;;;11.30;99.90;;;;;;5034792;28;20187;-79
2023/02/18 04:15:43;;;;;;;1.15;1.10;;;11.30;99.90;;;;;;5016927;28;20168;-79
2023/02/18 04:18:09;;;;;;;0.60;0.60;;;11.30;99.90;;;;;;5016206;28;20227;-79
2023/02/18 04:20:34;;;;;;;1.00;1.00;;;11.30;99.90;;;;;;5033347;28;20203;-79
2023/02/18 04:23:00;;;;;;;1.55;1.13;;;11.30;99.90;;;;;;5033202;28;20208;-80
2023/02/18 04:25:25;;;;;;;1.30;1.20;;;11.30;99.90;;;;;;5033576;28;20172;-79
2023/02/18 04:27:51;;;;;;;1.40;1.30;;;11.30;99.90;;;;;;5015861;28;20174;-79
2023/02/18 04:30:17;;;;;;;1.75;1.40;;;11.20;99.90;;;;;;5033509;28;20255;-79
2023/02/18 04:32:42;;;;;;;1.63;1.25;;;11.10;99.90;;;;;;5033288;28;20667;-79
2023/02/18 04:35:08;;;;;;;1.40;1.30;;;11.10;99.90;;;;;;5031720;28;20179;-80
2023/02/18 04:37:33;;;;;;;1.38;1.27;;;11.10;99.90;;;;;;5032783;28;20163;-81
2023/02/18 04:39:59;;;;;;;1.23;1.13;;;11.20;99.90;;;;;;5015809;28;20175;-82
2023/02/18 04:42:25;;;;;;;2.08;1.55;;;11.30;99.90;;;;;;5033189;28;20270;-79
2023/02/18 04:44:50;;;;;;;2.08;1.80;;;11.20;99.90;;;;;;5032891;28;20689;-79
2023/02/18 04:47:16;;;;;;;1.70;1.60;;;11.30;99.90;;;;;;5015499;28;20237;-80
2023/02/18 04:49:41;;;;;;;1.70;1.60;;;11.30;99.90;;;;;;5033049;28;20616;-80
2023/02/18 04:52:07;;;;;;;1.83;1.40;;;11.20;99.90;;;;;;5015184;28;20192;-80
2023/02/18 04:54:33;;;;;;;1.35;1.25;;;11.20;99.90;;;;;;5032863;28;20232;-79
2023/02/18 04:56:58;;;;;;;1.65;1.55;;;11.30;99.90;;;;;;5032379;28;20180;-81
2023/02/18 04:59:24;;;;;;;2.30;1.60;;;11.30;99.90;;;;;;5015325;28;20168;-83
2023/02/18 05:01:49;;;;;;;1.88;1.73;;;11.20;99.90;;;;;;5015296;28;20203;-80
2023/02/18 05:04:16;;;;;;;1.60;1.50;;;11.30;99.90;;;;;;5032853;28;20203;-80
2023/02/18 05:06:42;;;;;;;1.65;1.55;;;11.30;99.90;;;;;;5032464;28;20159;-80
2023/02/18 05:09:08;;;;;;;1.42;1.27;;;11.30;99.90;;;;;;5032403;28;20191;-80
2023/02/18 05:11:34;;;;;;;1.48;1.38;;;11.40;99.90;;;;;;5014963;28;20693;-81
2023/02/18 05:14:00;;;;;;;1.40;1.30;;;11.40;99.90;;;;;;5033959;28;20176;-80
2023/02/18 05:16:25;;;;;;;1.63;1.52;;;11.40;99.90;;;;;;5039603;28;20168;-80
2023/02/18 05:18:51;;;;;;;1.40;1.23;;;11.50;99.90;;;;;;4994196;28;1108432;-80
2023/02/18 05:21:16;;;;;;;1.40;1.30;;;11.40;99.90;;;;;;5032937;28;20160;-80
2023/02/18 05:23:42;;;;;;;1.48;1.20;;;11.30;99.90;;;;;;5014919;28;20211;-80
2023/02/18 05:26:08;;;;;;;1.40;1.30;;;11.20;99.90;;;;;;5033230;28;20537;-81
2023/02/18 05:28:33;;;;;;;3.97;1.25;;;11.20;99.90;;;;;;5032960;28;20179;-81
2023/02/18 05:30:59;;;;;;;1.52;1.08;;;11.20;99.90;;;;;;5015184;28;20176;-80
2023/02/18 05:33:25;;;;;;;3.42;1.65;;;11.20;99.90;;;;;;5033048;28;20188;-81
2023/02/18 05:35:51;;;;;;;1.52;1.30;;;11.10;99.90;;;;;;5015364;28;20176;-80
2023/02/18 05:38:16;;;;;;;3.38;1.55;;;11.00;99.90;;;;;;5015457;28;20258;-80
2023/02/18 05:40:42;;;;;;;5.30;1.45;;;11.00;99.90;;;;;;5033285;28;20156;-81
2023/02/18 05:43:08;;;;;;;1.67;1.25;;;11.00;99.90;;;;;;5033165;28;20212;-82
2023/02/18 05:45:34;;;;;;;3.05;1.30;;;11.00;99.90;;;;;;5034122;28;20201;-81
2023/02/18 05:48:00;;;;;;;2.35;1.48;;;11.00;99.90;;;;;;5034469;28;20183;-84
2023/02/18 05:50:26;;;;;;;5.07;1.65;;;11.10;99.90;;;;;;5016312;28;20164;-80
2023/02/18 05:52:51;;;;;;;3.20;1.52;;;11.20;99.90;;;;;;5032812;28;20652;-81
2023/02/18 05:55:17;;;;;;;5.10;1.50;;;11.10;99.90;;;;;;5014779;28;20171;-81
2023/02/18 05:57:42;;;;;;;3.90;1.40;;;11.10;99.90;;;;;;5032917;28;20251;-81
2023/02/18 06:00:09;;;;;;;6.20;1.42;;;11.20;99.90;;;;;;5014747;28;20168;-81
2023/02/18 06:02:35;;;;;;;8.32;2.10;;;11.00;99.90;;;;;;5032623;28;20669;-81
2023/02/18 06:05:01;;;;;;;13.90;1.65;;;11.00;99.90;;;;;;5032884;28;20210;-81
2023/02/18 06:07:27;;;;;;;11.48;1.83;;;11.00;99.90;;;;;;5015061;28;20616;-81
2023/02/18 06:09:52;;;;;;;1.65;1.02;;;11.00;99.90;;;;;;5014996;28;20176;-80
2023/02/18 06:12:18;;;;;;;2.63;1.10;;;11.00;99.90;;;;;;5014230;28;20593;-81
2023/02/18 06:14:44;;;;;;;5.40;1.75;;;11.00;99.90;;;;;;5032242;28;20199;-81
2023/02/18 06:17:12;;;;;;;10.60;1.67;;;11.00;99.90;;;;;;5032395;28;20694;-82
2023/02/18 06:19:38;;;;;;;9.70;1.33;;;11.00;99.90;;;;;;5031901;28;20632;-81
2023/02/18 06:22:04;;;;;;;10.77;1.73;;;11.00;99.90;;;;;;5031834;28;20187;-81
2023/02/18 06:24:30;;;;;;;14.88;2.35;;;11.00;99.90;;;;;;5014544;28;20311;-81
2023/02/18 06:26:56;;;;;;;10.95;2.13;;;11.00;99.90;;;;;;5035284;28;20187;-80
2023/02/18 06:29:22;;;;;;;7.68;1.45;;;11.00;99.90;;;;;;5038649;28;20180;-81
2023/02/18 06:31:47;;;;;;;5.65;1.52;;;11.00;99.90;;;;;;5036969;28;20160;-82
2023/02/18 06:34:13;;;;;;;5.50;1.75;;;10.90;99.90;;;;;;5036504;28;20164;-80
2023/02/18 06:36:39;;;;;;;8.45;1.98;;;11.00;99.90;;;;;;5017873;28;20689;-81
2023/02/18 06:39:06;;;;;;;12.85;1.80;;;11.00;99.90;;;;;;5037765;28;20158;-80
2023/02/18 06:41:32;;;;;;;10.00;1.38;;;11.10;99.90;;;;;;5019149;28;20171;-81
2023/02/18 06:43:58;;;;;;;10.32;1.48;;;11.00;99.90;;;;;;5034250;28;20597;-80
2023/02/18 06:46:24;;;;;;;12.45;2.42;;;11.00;99.90;;;;;;5039575;28;20168;-81
2023/02/18 06:48:50;;;;;;;13.50;1.98;;;11.00;99.90;;;;;;5034707;28;20259;-80
2023/02/18 06:51:15;;;;;;;15.02;2.03;;;10.90;99.90;;;;;;5022714;28;20167;-81
2023/02/18 06:53:42;;;;;;;10.90;2.75;;;11.00;99.90;;;;;;5043546;28;20558;-82
2023/02/18 06:56:08;;;;;;;10.38;2.13;;;11.10;99.90;;;;;;5020462;28;20168;-81
2023/02/18 06:58:34;;;;;;;10.00;2.13;;;11.10;99.90;;;;;;5037293;28;20164;-81
2023/02/18 07:01:00;;;;;;;12.73;1.35;;;11.10;99.90;;;;;;5021844;28;20255;-81
2023/02/18 07:03:26;;;;;;;20.17;2.05;;;11.00;99.90;;;;;;5020402;28;20207;-83
2023/02/18 07:05:52;;;;;;;5.03;1.55;;;11.00;99.90;;;;;;5036510;28;20160;-82
2023/02/18 07:08:17;;;;;;;7.93;1.85;;;11.00;99.90;;;;;;5037209;28;20179;-82
2023/02/18 07:10:43;;;;;;;3.25;1.80;;;11.00;99.90;;;;;;5035935;28;20246;-80
2023/02/18 07:13:08;;;;;;;14.32;2.85;;;11.00;99.90;;;;;;5036053;28;20196;-81
2023/02/18 07:15:34;;;;;;;12.55;3.13;;;11.10;99.90;;;;;;5036507;28;20182;-81
2023/02/18 07:18:00;;;;;;;5.88;2.10;;;11.20;99.90;;;;;;5018351;28;20206;-80
2023/02/18 07:20:26;;;;;;;9.82;1.75;;;11.10;99.90;;;;;;5036986;28;20168;-82
2023/02/18 07:22:53;;;;;;;11.20;2.05;;;11.10;99.90;;;;;;5023709;28;20187;-80
2023/02/18 07:25:19;;;;;;;11.82;1.85;;;11.20;99.90;;;;;;5019997;28;20167;-81
2023/02/18 07:27:44;;;;;;;20.27;1.65;;;11.10;99.90;;;;;;5020881;28;20655;-82
2023/02/18 07:30:10;;;;;;;11.43;1.70;;;11.10;99.90;;;;;;5020270;28;20180;-81
2023/02/18 07:32:36;;;;;;;11.40;2.28;;;11.20;99.90;;;;;;5037986;28;20275;-81
2023/02/18 07:35:03;;;;;;;15.30;1.67;;;11.20;99.90;;;;;;5038050;28;20247;-80
2023/02/18 07:37:29;;;;;;;11.00;2.13;;;11.20;99.90;;;;;;5025670;28;20199;-82
2023/02/18 07:39:55;;;;;;;8.15;1.75;;;11.20;99.90;;;;;;5039904;28;20171;-79
2023/02/18 07:42:21;;;;;;;9.80;2.25;;;11.20;99.90;;;;;;5022808;28;20211;-82
2023/02/18 07:44:46;;;;;;;9.45;1.88;;;11.20;99.90;;;;;;5042952;28;20196;-81
2023/02/18 07:47:14;;;;;;;12.65;1.95;;;11.20;99.90;;;;;;5029521;28;20160;-81
2023/02/18 07:49:40;;;;;;;6.35;2.05;;;11.10;99.90;;;;;;5044867;28;20168;-82
2023/02/18 07:52:06;;;;;;;6.45;2.13;;;11.10;99.90;;;;;;5044045;28;20721;-80
2023/02/18 07:54:32;;;;;;;11.25;2.05;;;11.20;99.90;;;;;;5043377;28;20190;-83
2023/02/18 07:56:59;;;;;;;10.95;1.98;;;11.30;99.90;;;;;;5047366;28;20160;-80
2023/02/18 07:59:25;;;;;;;9.27;2.05;;;11.30;99.90;;;;;;5054565;28;20166;-81
2023/02/18 08:01:50;;;;;;;7.75;2.10;;;11.20;99.90;;;;;;5037065;28;20180;-84
2023/02/18 08:04:16;;;;;;;17.83;3.10;;;11.30;99.90;;;;;;5034072;28;20219;-86
2023/02/18 08:06:45;;;;;;;10.75;1.83;;;11.30;99.90;;;;;;5040758;28;20164;-80
2023/02/18 08:09:11;;;;;;;8.02;1.55;;;11.20;99.90;;;;;;5035089;28;20664;-81
2023/02/18 08:11:37;;;;;;;10.05;2.25;;;11.40;99.90;;;;;;5037780;28;20202;-82
2023/02/18 08:14:02;;;;;;;15.07;1.73;;;11.40;99.90;;;;;;5017952;28;20543;-82
2023/02/18 08:16:28;;;;;;;8.27;2.10;;;11.40;99.90;;;;;;5035399;28;20164;-86
2023/02/18 08:18:54;;;;;;;8.98;1.83;;;11.40;99.90;;;;;;5017454;28;20195;-81
2023/02/18 08:21:22;;;;;;;5.85;2.08;;;11.40;99.90;;;;;;5017622;28;20195;-83
2023/02/18 08:23:48;;;;;;;4.75;1.52;;;11.30;99.90;;;;;;5036232;28;20758;-84
2023/02/18 08:26:14;;;;;;;8.85;1.52;;;11.40;99.90;;;;;;5036823;28;20160;-90
2023/02/18 08:28:39;;;;;;;6.78;2.45;;;11.50;99.90;;;;;;5039481;28;20554;-84
2023/02/18 08:31:05;;;;;;;7.07;1.60;;;11.60;99.90;;;;;;5019456;28;20645;-85
2023/02/18 08:33:32;;;;;;;7.82;2.05;;;11.60;99.90;;;;;;5019394;28;20192;-81
2023/02/18 08:35:57;;;;;;;11.23;1.80;;;11.60;99.90;;;;;;5036569;28;20302;-84
2023/02/18 08:38:23;;;;;;;10.10;1.75;;;11.70;99.90;;;;;;5018282;28;20225;-82
2023/02/18 08:40:50;;;;;;;5.72;0.95;;;11.80;99.90;;;;;;5035535;28;20160;-86
2023/02/18 08:43:17;;;;;;;6.82;1.33;;;11.80;99.90;;;;;;5018896;28;20200;-89
2023/02/18 08:45:43;;;;;;;5.63;1.30;;;11.80;99.90;;;;;;5019451;28;20182;-84
2023/02/18 08:48:11;;;;;;;9.43;1.30;;;11.70;99.90;;;;;;5036771;28;20168;-86
2023/02/18 08:50:37;;;;;;;5.93;1.70;;;11.70;99.90;;;;;;5038410;28;20175;-89
2023/02/18 08:53:03;;;;;;;3.40;1.35;;;11.70;99.90;;;;;;5036871;28;20188;-82
2023/02/18 08:55:31;;;;;;;7.43;1.48;;;11.70;99.90;;;;;;5036470;28;20172;-85
2023/02/18 08:57:57;;;;;;;11.43;1.48;;;11.70;99.90;;;;;;5018277;28;20172;-83
2023/02/18 09:00:22;;;;;;;6.30;1.02;;;11.70;99.90;;;;;;5016906;28;20183;-84
2023/02/18 09:02:48;;;;;;;7.82;1.35;;;11.70;99.90;;;;;;5016406;28;20195;-82
2023/02/18 09:05:14;;;;;;;12.65;1.13;;;11.70;99.90;;;;;;5034707;28;20164;-82
2023/02/18 09:07:39;;;;;;;5.38;1.23;;;11.90;99.90;;;;;;5034266;28;20532;-85
2023/02/18 09:10:06;;;;;;;2.05;0.90;;;12.00;99.90;;;;;;5016347;28;20164;-86
2023/02/18 09:12:32;;;;;;;11.65;1.33;;;11.90;99.90;;;;;;5033729;28;20245;-83
2023/02/18 09:14:58;;;;;;;4.65;1.60;;;12.00;99.90;;;;;;5034961;28;20168;-82
2023/02/18 09:17:23;;;;;;;9.40;1.67;;;11.90;99.90;;;;;;5034487;28;20194;-81
2023/02/18 09:19:49;;;;;;;6.63;1.23;;;11.90;99.90;;;;;;5034752;28;20171;-81
2023/02/18 09:22:14;;;;;;;9.80;1.55;;;12.00;99.90;;;;;;5033362;28;20203;-83
2023/02/18 09:24:41;;;;;;;4.47;1.00;;;12.10;99.90;;;;;;5034727;28;20211;-82
2023/02/18 09:27:07;;;;;;;7.68;1.33;;;12.00;99.90;;;;;;5033226;28;20227;-82
2023/02/18 09:29:37;;;;;;;4.72;1.17;;;12.00;99.90;;;;;;5033137;28;20223;-84
2023/02/18 09:32:03;;;;;;;4.95;1.35;;;12.00;99.90;;;;;;5032755;28;20207;-83
2023/02/18 09:34:29;;;;;;;5.35;1.42;;;12.10;99.90;;;;;;5034119;28;20175;-82
2023/02/18 09:36:55;;;;;;;6.90;0.90;;;12.10;99.90;;;;;;5032520;28;20260;-85
2023/02/18 09:39:21;;;;;;;5.93;1.48;;;12.20;99.90;;;;;;5032279;28;20207;-81
2023/02/18 09:41:59;;;;;;;9.25;1.13;;;12.20;99.90;;;;;;5034012;28;20689;-83
2023/02/18 09:44:25;;;;;;;6.20;1.33;;;12.20;99.90;;;;;;5034197;28;20684;-83
2023/02/18 09:47:05;;;;;;;8.90;1.60;;;12.30;99.90;;;;;;5032468;28;20239;-82
2023/02/18 09:49:37;;;;;;;4.00;1.42;;;12.30;99.90;;;;;;5035991;28;20182;-80
2023/02/18 09:52:27;;;;;;;12.27;1.23;;;12.20;99.90;;;;;;5058426;28;20191;-79
2023/02/18 09:54:53;;;;;;;5.45;1.00;;;12.20;99.90;;;;;;5047280;28;20176;-81
2023/02/18 09:57:27;;;;;;;9.82;1.25;;;12.30;99.90;;;;;;5034814;28;20255;-80
2023/02/18 10:00:04;;;;;;;8.88;1.45;;;12.20;99.90;;;;;;5047885;28;20182;-82
2023/02/18 10:02:31;;;;;;;3.92;1.38;;;12.20;99.90;;;;;;5038460;28;20194;-81
2023/02/18 10:04:57;;;;;;;7.03;1.40;;;12.20;99.90;;;;;;5055676;28;20280;-83
2023/02/18 10:07:33;;;;;;;5.15;1.40;;;12.20;99.90;;;;;;5050111;28;20171;-88
2023/02/18 10:10:14;;;;;;;4.20;1.88;;;12.30;99.90;;;;;;5034197;28;20214;-79
2023/02/18 10:12:40;;;;;;;3.45;1.20;;;12.40;99.90;;;;;;5040877;28;20186;-84
2023/02/18 10:15:15;;;;;;;6.85;1.42;;;12.50;99.90;;;;;;5050122;28;20168;-81
2023/02/18 10:17:41;;;;;;;4.43;1.35;;;12.50;99.90;;;;;;5034294;28;20195;-79
2023/02/18 10:20:07;;;;;;;13.70;0.98;;;12.50;99.90;;;;;;5036530;28;20172;-77
2023/02/18 10:22:33;;;;;;;2.88;1.10;;;12.50;99.90;;;;;;5039156;28;20317;-92
2023/02/18 10:25:03;;;;;;;6.30;1.42;;;12.60;99.90;;;;;;5051054;28;20286;-80
2023/02/18 10:27:32;;;;;;;5.20;1.58;;;12.50;99.90;;;;;;5040414;28;20178;-83
2023/02/18 10:30:23;;;;;;;5.00;1.67;;;12.40;99.90;;;;;;5059105;28;20257;-78
2023/02/18 10:32:59;;;;;;;3.40;1.02;;;12.40;99.90;;;;;;5007806;28;20216;-80
2023/02/18 10:35:40;;;;;;;6.97;2.25;;;12.40;99.90;;;;;;5051492;28;20209;-80
2023/02/18 10:38:41;;;;;;;7.57;1.10;;;12.30;99.90;;;;;;5053287;28;20707;-78
2023/02/18 10:41:24;;;;;;;5.25;1.48;;;12.40;99.90;;;;;;5031110;28;20175;-79
2023/02/18 10:44:00;;;;;;;5.43;1.40;;;12.40;99.90;;;;;;5044499;28;20197;-78
2023/02/18 10:46:50;;;;;;;2.47;1.45;;;12.40;99.90;;;;;;5055520;28;20210;-78
2023/02/18 10:49:42;;;;;;;9.23;2.10;;;12.50;99.90;;;;;;5045923;28;20382;-78
2023/02/18 10:52:15;;;;;;;7.13;1.83;;;12.40;99.90;;;;;;5048674;28;20186;-81
2023/02/18 10:55:17;;;;;;;9.85;1.83;;;12.40;99.90;;;;;;5050415;28;20195;-81
2023/02/18 10:57:48;;;;;;;9.05;1.77;;;12.40;99.90;;;;;;5009304;28;20210;-78
2023/02/18 11:00:15;;;;;;;7.68;1.45;;;12.50;99.90;;;;;;5058227;28;20179;-80
2023/02/18 11:02:42;;;;;;;10.05;1.50;;;12.50;99.90;;;;;;5042123;28;20647;-85
2023/02/18 11:05:27;;;;;;;4.28;1.60;;;12.50;99.90;;;;;;5032764;28;20287;-82
2023/02/18 11:07:56;;;;;;;5.85;1.35;;;12.50;99.90;;;;;;5031336;28;20176;-84
2023/02/18 11:10:31;;;;;;;9.65;2.13;;;12.50;99.90;;;;;;5031606;28;20176;-83
2023/02/18 11:13:02;;;;;;;8.23;1.58;;;12.60;99.90;;;;;;5047659;28;20187;-83
2023/02/18 11:15:28;;;;;;;3.75;0.90;;;12.60;99.90;;;;;;5017280;28;20176;-79
2023/02/18 11:18:26;;;;;;;8.85;1.20;;;12.60;99.90;;;;;;5039856;28;20179;-83
2023/02/18 11:20:58;;;;;;;6.82;1.95;;;12.60;99.90;;;;;;5034008;28;20182;-80
2023/02/18 11:23:24;;;;;;;12.68;1.55;;;12.60;99.90;;;;;;5047223;28;20297;-79
2023/02/18 11:25:57;;;;;;;5.50;1.50;;;12.60;99.90;;;;;;5041705;28;20570;-86
2023/02/18 11:29:02;;;;;;;8.73;1.75;;;12.60;99.90;;;;;;5051438;28;20259;-76
2023/02/18 11:31:45;;;;;;;5.38;1.40;;;12.70;99.90;;;;;;4969925;28;20352;-82
2023/02/18 11:34:19;;;;;;;3.72;1.35;;;12.70;99.90;;;;;;4964809;28;20185;-78
2023/02/18 11:36:46;;;;;;;11.93;1.58;;;12.80;99.90;;;;;;5022940;28;20183;-82
2023/02/18 11:39:32;;;;;;;5.70;1.80;;;12.70;99.90;;;;;;5032453;28;20259;-82
2023/02/18 11:42:02;;;;;;;6.72;1.80;;;12.80;99.90;;;;;;5031436;28;20257;-78
2023/02/18 11:44:39;;;;;;;8.18;1.92;;;12.80;99.90;;;;;;5060532;28;20284;-85
2023/02/18 11:47:13;;;;;;;5.15;1.63;;;12.90;99.90;;;;;;5040376;28;20229;-79
2023/02/18 11:49:41;;;;;;;3.28;1.25;;;12.80;99.90;;;;;;5035454;28;20199;-78
2023/02/18 11:52:19;;;;;;;5.65;1.60;;;12.90;99.90;;;;;;5036303;28;20785;-78
2023/02/18 11:55:29;;;;;;;5.03;1.92;;;12.80;99.90;;;;;;5037325;28;20195;-80
2023/02/18 11:58:05;;;;;;;9.35;1.70;;;12.80;99.90;;;;;;5036749;28;20172;-82
2023/02/18 12:00:55;;;;;;;9.32;1.45;;;13.00;99.90;;;;;;5036919;28;20234;-83
2023/02/18 12:03:51;;;;;;;3.75;1.40;;;12.90;99.90;;;;;;5023922;28;20218;-80
2023/02/18 12:06:27;;;;;;;4.05;1.88;;;13.00;99.90;;;;;;5035377;28;20195;-78
2023/02/18 12:09:03;;;;;;;8.23;1.98;;;13.10;99.90;;;;;;5034971;28;20179;-78
2023/02/18 12:11:38;;;;;;;8.30;1.88;;;13.10;99.90;;;;;;5034530;28;20226;-79
2023/02/18 12:14:13;;;;;;;8.20;2.15;;;13.00;99.90;;;;;;5042106;28;20188;-81
2023/02/18 12:17:20;;;;;;;4.30;2.15;;;13.10;99.90;;;;;;5056243;28;20170;-77
2023/02/18 12:20:06;;;;;;;2.05;1.27;;;13.00;99.90;;;;;;5034620;28;20179;-83
2023/02/18 12:22:42;;;;;;;6.80;1.45;;;13.10;99.90;;;;;;5059822;28;20216;-79
2023/02/18 12:25:24;;;;;;;5.28;1.65;;;13.10;99.90;;;;;;5073940;28;20241;-78
2023/02/18 12:28:16;;;;;;;5.25;1.63;;;13.10;99.90;;;;;;5034226;28;20168;-79
2023/02/18 12:31:10;;;;;;;5.43;1.90;;;13.10;99.90;;;;;;5003815;28;20195;-77
2023/02/18 12:33:44;;;;;;;5.85;2.22;;;13.20;99.90;;;;;;5033860;28;20188;-81
2023/02/18 12:36:31;;;;;;;6.60;1.80;;;13.10;99.90;;;;;;5034678;28;20176;-83
2023/02/18 12:39:31;;;;;;;9.15;2.05;;;13.20;99.90;;;;;;5051249;22;20159;-79
2023/02/18 12:42:18;;;;;;;6.75;1.83;;;13.20;99.90;;;;;;5060043;28;20199;-78
2023/02/18 12:45:07;;;;;;;8.88;2.35;;;13.20;99.90;;;;;;5065328;28;20597;-78
2023/02/18 12:47:32;;;;;;;9.27;1.77;;;13.10;99.90;;;;;;5052157;28;20197;-79
2023/02/18 12:50:14;;;;;;;5.53;1.90;;;13.10;99.90;;;;;;5053767;28;20175;-78
2023/02/18 12:53:01;;;;;;;4.47;1.75;;;13.10;99.90;;;;;;5053348;28;20209;-82
2023/02/18 12:55:29;;;;;;;12.27;2.17;;;13.20;99.90;;;;;;5052291;28;20179;-83
2023/02/18 12:58:01;;;;;;;5.53;1.45;;;13.00;99.90;;;;;;5052278;28;20221;-78
2023/02/18 13:00:29;;;;;;;9.50;2.50;;;12.80;99.90;;;;;;5049946;28;20236;-78
2023/02/18 13:03:33;;;;;;;4.05;1.92;;;12.70;99.90;;;;;;5051966;28;20191;-79
2023/02/18 13:06:21;;;;;;;7.90;2.58;;;12.80;99.90;;;;;;5008456;28;20620;-78